sensor_id;sensor_type;location;lat;lon;timestamp;temperature;humidity
6496;DHT22;3281;47.658;9.166;2023-07-13T00:00:26;18.80;99.90
6496;DHT22;3281;47.658;9.166;2023-07-13T00:02:53;18.90;99.90
6496;DHT22;3281;47.658;9.166;2023-07-13T00:05:20;18.90;99.90
6496;DHT22;3281;47.658;9.166;2023-07-13T00:07:47;18.90;99.90
6496;DHT22;3281;47.658;9.166;2023-07-13T00:10:15;18.80;99.90
6496;DHT22;3281;47.658;9.166;2023-07-13T00:12:43;18.80;99.90
6496;DHT22;3281;47.658;9.166;2023-07-13T00:15:12;18.80;99.90
6496;DHT22;3281;47.658;9.166;2023-07-13T00:17:43;18.80;99.90
6496;DHT22;3281;47.658;9.166;2023-07-13T00:20:11;18.90;99.90
6496;DHT22;3281;47.658;9.166;2023-07-13T00:22:38;18.90;99.80
6496;DHT22;3281;47.658;9.166;2023-07-13T00:25:05;18.80;99.80
6496;DHT22;3281;47.658;9.166;2023-07-13T00:27:32;18.80;99.70
6496;DHT22;3281;47.658;9.166;2023-07-13T00:29:59;18.90;99.90
6496;DHT22;3281;47.658;9.166;2023-07-13T00:32:26;18.80;99.90
6496;DHT22;3281;47.658;9.166;2023-07-13T00:34:54;18.80;99.90
6496;DHT22;3281;47.658;9.166;2023-07-13T00:37:20;18.80;99.90
6496;DHT22;3281;47.658;9.166;2023-07-13T00:39:47;18.70;99.90
6496;DHT22;3281;47.658;9.166;2023-07-13T00:42:14;18.80;99.90
6496;DHT22;3281;47.658;9.166;2023-07-13T00:44:40;18.80;99.90
6496;DHT22;3281;47.658;9.166;2023-07-13T00:47:07;18.80;99.90
6496;DHT22;3281;47.658;9.166;2023-07-13T00:49:35;18.80;99.90
6496;DHT22;3281;47.658;9.166;2023-07-13T00:52:06;18.80;99.90
6496;DHT22;3281;47.658;9.166;2023-07-13T00:54:37;18.70;99.90
6496;DHT22;3281;47.658;9.166;2023-07-13T00:57:07;18.70;99.90
6496;DHT22;3281;47.658;9.166;2023-07-13T00:59:35;18.70;99.90
6496;DHT22;3281;47.658;9.166;2023-07-13T01:02:03;18.70;99.90
6496;DHT22;3281;47.658;9.166;2023-07-13T01:04:30;18.70;99.90
6496;DHT22;3281;47.658;9.166;2023-07-13T01:06:57;18.70;99.90
6496;DHT22;3281;47.658;9.166;2023-07-13T01:09:27;18.70;99.90
6496;DHT22;3281;47.658;9.166;2023-07-13T01:11:54;18.80;99.90
6496;DHT22;3281;47.658;9.166;2023-07-13T01:14:20;18.70;97.30
6496;DHT22;3281;47.658;9.166;2023-07-13T01:16:49;18.70;95.00
6496;DHT22;3281;47.658;9.166;2023-07-13T01:19:27;18.70;99.90
6496;DHT22;3281;47.658;9.166;2023-07-13T01:22:03;18.70;99.90
6496;DHT22;3281;47.658;9.166;2023-07-13T01:24:35;18.70;99.90
6496;DHT22;3281;47.658;9.166;2023-07-13T01:27:03;18.70;99.90
6496;DHT22;3281;47.658;9.166;2023-07-13T01:29:32;18.60;99.90
6496;DHT22;3281;47.658;9.166;2023-07-13T01:31:59;18.70;99.90
6496;DHT22;3281;47.658;9.166;2023-07-13T01:34:26;18.70;99.90
6496;DHT22;3281;47.658;9.166;2023-07-13T01:36:53;18.70;99.90
6496;DHT22;3281;47.658;9.166;2023-07-13T01:39:22;18.70;99.90
6496;DHT22;3281;47.658;9.166;2023-07-13T01:41:49;18.70;99.90
6496;DHT22;3281;47.658;9.166;2023-07-13T01:44:15;18.80;99.90
6496;DHT22;3281;47.658;9.166;2023-07-13T01:46:42;18.70;99.90
6496;DHT22;3281;47.658;9.166;2023-07-13T01:49:09;18.70;99.90
6496;DHT22;3281;47.658;9.166;2023-07-13T01:51:35;18.70;99.90
6496;DHT22;3281;47.658;9.166;2023-07-13T01:54:02;18.70;99.90
6496;DHT22;3281;47.658;9.166;2023-07-13T01:56:30;18.60;99.90
6496;DHT22;3281;47.658;9.166;2023-07-13T01:58:57;18.50;99.90
6496;DHT22;3281;47.658;9.166;2023-07-13T02:01:24;18.50;99.90
6496;DHT22;3281;47.658;9.166;2023-07-13T02:03:50;18.40;99.90
6496;DHT22;3281;47.658;9.166;2023-07-13T02:06:17;18.40;99.90
6496;DHT22;3281;47.658;9.166;2023-07-13T02:08:44;18.40;99.90
6496;DHT22;3281;47.658;9.166;2023-07-13T02:11:10;18.50;99.90
6496;DHT22;3281;47.658;9.166;2023-07-13T02:13:38;18.50;99.90
6496;DHT22;3281;47.658;9.166;2023-07-13T02:16:05;18.50;99.90
6496;DHT22;3281;47.658;9.166;2023-07-13T02:18:32;18.50;99.90
6496;DHT22;3281;47.658;9.166;2023-07-13T02:20:59;18.40;99.90
6496;DHT22;3281;47.658;9.166;2023-07-13T02:23:25;18.40;99.90
6496;DHT22;3281;47.658;9.166;2023-07-13T02:25:55;18.40;99.90
6496;DHT22;3281;47.658;9.166;2023-07-13T02:28:22;18.40;99.90
6496;DHT22;3281;47.658;9.166;2023-07-13T02:30:50;18.40;99.90
6496;DHT22;3281;47.658;9.166;2023-07-13T02:33:17;18.30;99.90
6496;DHT22;3281;47.658;9.166;2023-07-13T02:35:43;18.30;99.90
6496;DHT22;3281;47.658;9.166;2023-07-13T02:38:10;18.30;99.90
6496;DHT22;3281;47.658;9.166;2023-07-13T02:40:37;18.30;99.90
6496;DHT22;3281;47.658;9.166;2023-07-13T02:43:04;18.30;99.90
6496;DHT22;3281;47.658;9.166;2023-07-13T02:45:30;18.20;99.90
6496;DHT22;3281;47.658;9.166;2023-07-13T02:47:58;18.20;99.90
6496;DHT22;3281;47.658;9.166;2023-07-13T02:50:25;18.20;99.90
6496;DHT22;3281;47.658;9.166;2023-07-13T02:52:51;18.30;99.90
6496;DHT22;3281;47.658;9.166;2023-07-13T02:55:18;18.30;99.90
6496;DHT22;3281;47.658;9.166;2023-07-13T02:57:45;18.30;99.90
6496;DHT22;3281;47.658;9.166;2023-07-13T03:00:12;18.30;99.90
6496;DHT22;3281;47.658;9.166;2023-07-13T03:02:39;18.30;99.90
6496;DHT22;3281;47.658;9.166;2023-07-13T03:05:07;18.30;99.90
6496;DHT22;3281;47.658;9.166;2023-07-13T03:07:38;18.30;99.90
6496;DHT22;3281;47.658;9.166;2023-07-13T03:10:06;18.40;99.90
6496;DHT22;3281;47.658;9.166;2023-07-13T03:12:33;18.40;99.90
6496;DHT22;3281;47.658;9.166;2023-07-13T03:14:59;18.40;99.90
6496;DHT22;3281;47.658;9.166;2023-07-13T03:17:26;18.40;99.90
6496;DHT22;3281;47.658;9.166;2023-07-13T03:19:53;18.40;99.90
6496;DHT22;3281;47.658;9.166;2023-07-13T03:22:21;18.40;99.90
6496;DHT22;3281;47.658;9.166;2023-07-13T03:24:48;18.40;99.90
6496;DHT22;3281;47.658;9.166;2023-07-13T03:27:15;18.50;99.90
6496;DHT22;3281;47.658;9.166;2023-07-13T03:29:42;18.50;99.90
6496;DHT22;3281;47.658;9.166;2023-07-13T03:32:09;18.40;99.90
6496;DHT22;3281;47.658;9.166;2023-07-13T03:34:35;18.50;99.90
6496;DHT22;3281;47.658;9.166;2023-07-13T03:37:02;18.50;99.90
6496;DHT22;3281;47.658;9.166;2023-07-13T03:39:30;18.40;99.90
6496;DHT22;3281;47.658;9.166;2023-07-13T03:41:57;18.40;99.90
6496;DHT22;3281;47.658;9.166;2023-07-13T03:44:24;18.40;99.90
6496;DHT22;3281;47.658;9.166;2023-07-13T03:46:50;18.40;99.90
6496;DHT22;3281;47.658;9.166;2023-07-13T03:49:17;18.40;99.90
6496;DHT22;3281;47.658;9.166;2023-07-13T03:51:44;18.40;99.90
6496;DHT22;3281;47.658;9.166;2023-07-13T03:54:10;18.50;99.90
6496;DHT22;3281;47.658;9.166;2023-07-13T03:56:38;18.40;99.90
6496;DHT22;3281;47.658;9.166;2023-07-13T03:59:05;18.40;99.10
6496;DHT22;3281;47.658;9.166;2023-07-13T04:01:32;18.40;99.90
6496;DHT22;3281;47.658;9.166;2023-07-13T04:03:58;18.30;99.90
6496;DHT22;3281;47.658;9.166;2023-07-13T04:06:28;18.30;99.90
6496;DHT22;3281;47.658;9.166;2023-07-13T04:08:57;18.30;99.90
6496;DHT22;3281;47.658;9.166;2023-07-13T04:11:26;18.30;99.90
6496;DHT22;3281;47.658;9.166;2023-07-13T04:13:55;18.30;99.90
6496;DHT22;3281;47.658;9.166;2023-07-13T04:16:22;18.30;99.90
6496;DHT22;3281;47.658;9.166;2023-07-13T04:18:50;18.30;99.90
6496;DHT22;3281;47.658;9.166;2023-07-13T04:21:20;18.30;99.90
6496;DHT22;3281;47.658;9.166;2023-07-13T04:23:47;18.40;99.90
6496;DHT22;3281;47.658;9.166;2023-07-13T04:26:14;18.40;99.90
6496;DHT22;3281;47.658;9.166;2023-07-13T04:28:40;18.40;99.80
6496;DHT22;3281;47.658;9.166;2023-07-13T04:31:08;18.40;99.90
6496;DHT22;3281;47.658;9.166;2023-07-13T04:33:35;18.40;99.60
6496;DHT22;3281;47.658;9.166;2023-07-13T04:36:02;18.40;96.90
6496;DHT22;3281;47.658;9.166;2023-07-13T04:38:30;18.40;96.90
6496;DHT22;3281;47.658;9.166;2023-07-13T04:40:59;18.40;94.90
6496;DHT22;3281;47.658;9.166;2023-07-13T04:43:27;18.50;98.60
6496;DHT22;3281;47.658;9.166;2023-07-13T04:45:54;18.40;95.20
6496;DHT22;3281;47.658;9.166;2023-07-13T04:48:22;18.50;99.90
6496;DHT22;3281;47.658;9.166;2023-07-13T04:50:54;18.60;99.90
6496;DHT22;3281;47.658;9.166;2023-07-13T04:53:21;18.50;99.90
6496;DHT22;3281;47.658;9.166;2023-07-13T04:55:48;18.50;99.90
6496;DHT22;3281;47.658;9.166;2023-07-13T04:58:15;18.60;99.90
6496;DHT22;3281;47.658;9.166;2023-07-13T05:00:41;18.60;99.90
6496;DHT22;3281;47.658;9.166;2023-07-13T05:03:08;18.70;99.90
6496;DHT22;3281;47.658;9.166;2023-07-13T05:05:36;18.60;99.90
6496;DHT22;3281;47.658;9.166;2023-07-13T05:08:03;18.60;99.20
6496;DHT22;3281;47.658;9.166;2023-07-13T05:10:30;18.50;95.60
6496;DHT22;3281;47.658;9.166;2023-07-13T05:12:56;18.50;93.30
6496;DHT22;3281;47.658;9.166;2023-07-13T05:15:23;18.50;92.40
6496;DHT22;3281;47.658;9.166;2023-07-13T05:17:51;18.60;94.70
6496;DHT22;3281;47.658;9.166;2023-07-13T05:20:19;18.70;91.50
6496;DHT22;3281;47.658;9.166;2023-07-13T05:22:47;18.70;94.80
6496;DHT22;3281;47.658;9.166;2023-07-13T05:25:14;18.70;94.80
6496;DHT22;3281;47.658;9.166;2023-07-13T05:27:41;18.90;94.90
6496;DHT22;3281;47.658;9.166;2023-07-13T05:30:08;18.80;95.20
6496;DHT22;3281;47.658;9.166;2023-07-13T05:32:37;18.90;95.10
6496;DHT22;3281;47.658;9.166;2023-07-13T05:35:04;18.90;92.80
6496;DHT22;3281;47.658;9.166;2023-07-13T05:37:31;18.90;95.50
6496;DHT22;3281;47.658;9.166;2023-07-13T05:39:59;18.90;93.40
6496;DHT22;3281;47.658;9.166;2023-07-13T05:42:26;18.90;90.90
6496;DHT22;3281;47.658;9.166;2023-07-13T05:44:53;19.00;95.10
6496;DHT22;3281;47.658;9.166;2023-07-13T05:47:19;19.00;91.50
6496;DHT22;3281;47.658;9.166;2023-07-13T05:49:46;19.10;92.30
6496;DHT22;3281;47.658;9.166;2023-07-13T05:52:13;19.10;88.90
6496;DHT22;3281;47.658;9.166;2023-07-13T05:54:39;19.10;83.40
6496;DHT22;3281;47.658;9.166;2023-07-13T05:57:07;19.10;83.90
6496;DHT22;3281;47.658;9.166;2023-07-13T05:59:35;19.20;90.00
6496;DHT22;3281;47.658;9.166;2023-07-13T06:02:02;19.20;90.90
6496;DHT22;3281;47.658;9.166;2023-07-13T06:04:29;19.20;85.30
6496;DHT22;3281;47.658;9.166;2023-07-13T06:06:56;19.20;89.80
6496;DHT22;3281;47.658;9.166;2023-07-13T06:09:22;19.20;90.00
6496;DHT22;3281;47.658;9.166;2023-07-13T06:11:49;19.10;78.40
6496;DHT22;3281;47.658;9.166;2023-07-13T06:14:17;19.00;80.20
6496;DHT22;3281;47.658;9.166;2023-07-13T06:16:44;19.00;90.60
6496;DHT22;3281;47.658;9.166;2023-07-13T06:19:11;18.90;89.70
6496;DHT22;3281;47.658;9.166;2023-07-13T06:21:37;18.90;89.10
6496;DHT22;3281;47.658;9.166;2023-07-13T06:24:04;18.80;89.40
6496;DHT22;3281;47.658;9.166;2023-07-13T06:26:31;18.90;89.70
6496;DHT22;3281;47.658;9.166;2023-07-13T06:28:58;18.90;92.70
6496;DHT22;3281;47.658;9.166;2023-07-13T06:31:26;18.90;91.40
6496;DHT22;3281;47.658;9.166;2023-07-13T06:33:53;18.80;90.60
6496;DHT22;3281;47.658;9.166;2023-07-13T06:36:19;18.80;94.80
6496;DHT22;3281;47.658;9.166;2023-07-13T06:38:46;18.60;94.80
6496;DHT22;3281;47.658;9.166;2023-07-13T06:41:13;18.60;97.20
6496;DHT22;3281;47.658;9.166;2023-07-13T06:43:39;18.60;99.70
6496;DHT22;3281;47.658;9.166;2023-07-13T06:46:06;18.60;99.90
6496;DHT22;3281;47.658;9.166;2023-07-13T06:48:34;18.50;99.90
6496;DHT22;3281;47.658;9.166;2023-07-13T06:51:01;18.50;99.90
6496;DHT22;3281;47.658;9.166;2023-07-13T06:53:28;18.50;99.90
6496;DHT22;3281;47.658;9.166;2023-07-13T06:55:55;18.50;99.90
6496;DHT22;3281;47.658;9.166;2023-07-13T06:58:22;18.30;99.90
6496;DHT22;3281;47.658;9.166;2023-07-13T07:00:50;18.20;99.90
6496;DHT22;3281;47.658;9.166;2023-07-13T07:03:18;18.20;99.90
6496;DHT22;3281;47.658;9.166;2023-07-13T07:05:46;17.90;95.10
6496;DHT22;3281;47.658;9.166;2023-07-13T07:08:12;17.70;95.60
6496;DHT22;3281;47.658;9.166;2023-07-13T07:10:40;17.80;99.40
6496;DHT22;3281;47.658;9.166;2023-07-13T07:13:08;17.70;97.30
6496;DHT22;3281;47.658;9.166;2023-07-13T07:15:34;17.70;97.70
6496;DHT22;3281;47.658;9.166;2023-07-13T07:18:01;17.50;96.70
6496;DHT22;3281;47.658;9.166;2023-07-13T07:20:28;17.50;98.70
6496;DHT22;3281;47.658;9.166;2023-07-13T07:22:57;17.50;98.70
6496;DHT22;3281;47.658;9.166;2023-07-13T07:25:24;17.40;97.70
6496;DHT22;3281;47.658;9.166;2023-07-13T07:27:50;17.30;95.10
6496;DHT22;3281;47.658;9.166;2023-07-13T07:30:17;17.40;96.90
6496;DHT22;3281;47.658;9.166;2023-07-13T07:32:44;17.40;96.90
6496;DHT22;3281;47.658;9.166;2023-07-13T07:35:10;17.40;99.20
6496;DHT22;3281;47.658;9.166;2023-07-13T07:37:37;17.40;98.70
6496;DHT22;3281;47.658;9.166;2023-07-13T07:40:07;17.50;99.30
6496;DHT22;3281;47.658;9.166;2023-07-13T07:42:34;17.50;99.90
6496;DHT22;3281;47.658;9.166;2023-07-13T07:45:01;17.50;99.30
6496;DHT22;3281;47.658;9.166;2023-07-13T07:47:27;17.60;99.10
6496;DHT22;3281;47.658;9.166;2023-07-13T07:49:55;17.60;99.10
6496;DHT22;3281;47.658;9.166;2023-07-13T07:52:21;17.80;99.90
6496;DHT22;3281;47.658;9.166;2023-07-13T07:54:48;18.00;99.90
6496;DHT22;3281;47.658;9.166;2023-07-13T07:57:16;17.90;94.50
6496;DHT22;3281;47.658;9.166;2023-07-13T07:59:43;17.90;93.70
6496;DHT22;3281;47.658;9.166;2023-07-13T08:02:10;17.90;94.50
6496;DHT22;3281;47.658;9.166;2023-07-13T08:04:37;17.90;88.20
6496;DHT22;3281;47.658;9.166;2023-07-13T08:07:04;17.90;91.70
6496;DHT22;3281;47.658;9.166;2023-07-13T08:09:31;18.00;93.90
6496;DHT22;3281;47.658;9.166;2023-07-13T08:11:58;18.10;91.90
6496;DHT22;3281;47.658;9.166;2023-07-13T08:14:26;18.20;92.30
6496;DHT22;3281;47.658;9.166;2023-07-13T08:16:53;18.40;90.20
6496;DHT22;3281;47.658;9.166;2023-07-13T08:19:20;18.50;92.10
6496;DHT22;3281;47.658;9.166;2023-07-13T08:21:46;18.40;74.90
6496;DHT22;3281;47.658;9.166;2023-07-13T08:24:14;18.40;82.90
6496;DHT22;3281;47.658;9.166;2023-07-13T08:26:43;18.40;83.70
6496;DHT22;3281;47.658;9.166;2023-07-13T08:29:10;18.50;80.30
6496;DHT22;3281;47.658;9.166;2023-07-13T08:31:38;18.60;72.20
6496;DHT22;3281;47.658;9.166;2023-07-13T08:34:05;18.70;65.30
6496;DHT22;3281;47.658;9.166;2023-07-13T08:36:32;18.90;72.70
6496;DHT22;3281;47.658;9.166;2023-07-13T08:38:58;19.00;55.00
6496;DHT22;3281;47.658;9.166;2023-07-13T08:41:25;19.00;58.70
6496;DHT22;3281;47.658;9.166;2023-07-13T08:43:56;19.20;60.40
6496;DHT22;3281;47.658;9.166;2023-07-13T08:46:26;19.10;49.60
6496;DHT22;3281;47.658;9.166;2023-07-13T08:48:58;19.00;44.30
6496;DHT22;3281;47.658;9.166;2023-07-13T08:51:38;19.20;59.50
6496;DHT22;3281;47.658;9.166;2023-07-13T08:54:16;19.30;55.40
6496;DHT22;3281;47.658;9.166;2023-07-13T08:56:45;19.40;44.20
6496;DHT22;3281;47.658;9.166;2023-07-13T08:59:14;19.40;33.90
6496;DHT22;3281;47.658;9.166;2023-07-13T09:04:52;19.60;27.80
6496;DHT22;3281;47.658;9.166;2023-07-13T09:07:29;19.70;19.40
6496;DHT22;3281;47.658;9.166;2023-07-13T09:10:07;19.80;22.30
6496;DHT22;3281;47.658;9.166;2023-07-13T09:12:47;19.80;5.30
6496;DHT22;3281;47.658;9.166;2023-07-13T09:15:24;19.90;1.00
6496;DHT22;3281;47.658;9.166;2023-07-13T09:17:53;20.10;5.50
6496;DHT22;3281;47.658;9.166;2023-07-13T09:20:26;20.30;5.70
6496;DHT22;3281;47.658;9.166;2023-07-13T09:22:54;20.40;5.90
6496;DHT22;3281;47.658;9.166;2023-07-13T09:25:27;20.40;11.30
6496;DHT22;3281;47.658;9.166;2023-07-13T09:27:58;20.50;1.80
6496;DHT22;3281;47.658;9.166;2023-07-13T09:30:32;20.50;1.00
6496;DHT22;3281;47.658;9.166;2023-07-13T09:33:00;20.60;1.00
6496;DHT22;3281;47.658;9.166;2023-07-13T09:35:29;20.50;2.50
6496;DHT22;3281;47.658;9.166;2023-07-13T09:38:04;20.40;1.00
6496;DHT22;3281;47.658;9.166;2023-07-13T09:40:43;20.40;1.00
6496;DHT22;3281;47.658;9.166;2023-07-13T09:43:13;20.60;4.90
6496;DHT22;3281;47.658;9.166;2023-07-13T09:45:40;20.50;1.00
6496;DHT22;3281;47.658;9.166;2023-07-13T09:48:12;20.40;1.00
6496;DHT22;3281;47.658;9.166;2023-07-13T09:50:42;20.40;1.00
6496;DHT22;3281;47.658;9.166;2023-07-13T09:53:12;20.40;1.00
6496;DHT22;3281;47.658;9.166;2023-07-13T09:55:41;20.40;1.00
6496;DHT22;3281;47.658;9.166;2023-07-13T09:58:11;20.20;1.00
6496;DHT22;3281;47.658;9.166;2023-07-13T10:00:38;20.20;1.00
6496;DHT22;3281;47.658;9.166;2023-07-13T10:03:16;20.00;1.00
6496;DHT22;3281;47.658;9.166;2023-07-13T10:05:46;19.80;1.00
6496;DHT22;3281;47.658;9.166;2023-07-13T10:08:18;19.70;1.00
6496;DHT22;3281;47.658;9.166;2023-07-13T10:10:45;19.60;1.00
6496;DHT22;3281;47.658;9.166;2023-07-13T10:13:26;19.60;1.00
6496;DHT22;3281;47.658;9.166;2023-07-13T10:15:54;19.50;1.00
6496;DHT22;3281;47.658;9.166;2023-07-13T10:18:22;19.50;1.00
6496;DHT22;3281;47.658;9.166;2023-07-13T10:20:54;19.50;1.00
6496;DHT22;3281;47.658;9.166;2023-07-13T10:23:27;19.60;1.00
6496;DHT22;3281;47.658;9.166;2023-07-13T10:25:59;19.70;1.00
6496;DHT22;3281;47.658;9.166;2023-07-13T10:28:29;19.70;1.00
6496;DHT22;3281;47.658;9.166;2023-07-13T10:30:56;19.80;1.00
6496;DHT22;3281;47.658;9.166;2023-07-13T10:33:25;19.80;1.00
6496;DHT22;3281;47.658;9.166;2023-07-13T10:36:00;20.10;1.00
6496;DHT22;3281;47.658;9.166;2023-07-13T10:38:29;20.00;1.00
6496;DHT22;3281;47.658;9.166;2023-07-13T10:41:03;19.90;1.00
6496;DHT22;3281;47.658;9.166;2023-07-13T10:43:34;19.90;1.00
6496;DHT22;3281;47.658;9.166;2023-07-13T10:46:04;20.00;1.00
6496;DHT22;3281;47.658;9.166;2023-07-13T10:48:32;20.20;1.00
6496;DHT22;3281;47.658;9.166;2023-07-13T10:51:01;20.30;1.00
6496;DHT22;3281;47.658;9.166;2023-07-13T10:53:33;20.70;1.00
6496;DHT22;3281;47.658;9.166;2023-07-13T10:56:01;20.80;1.00
6496;DHT22;3281;47.658;9.166;2023-07-13T10:58:36;20.90;1.00
6496;DHT22;3281;47.658;9.166;2023-07-13T11:01:08;21.00;1.00
6496;DHT22;3281;47.658;9.166;2023-07-13T11:03:37;21.00;1.00
6496;DHT22;3281;47.658;9.166;2023-07-13T11:06:08;21.00;1.00
6496;DHT22;3281;47.658;9.166;2023-07-13T11:08:37;20.90;1.00
6496;DHT22;3281;47.658;9.166;2023-07-13T11:11:33;20.80;1.00
6496;DHT22;3281;47.658;9.166;2023-07-13T11:14:02;20.60;1.00
6496;DHT22;3281;47.658;9.166;2023-07-13T11:16:41;20.70;1.00
6496;DHT22;3281;47.658;9.166;2023-07-13T11:19:37;20.60;1.00
6496;DHT22;3281;47.658;9.166;2023-07-13T11:22:21;20.50;1.00
6496;DHT22;3281;47.658;9.166;2023-07-13T11:24:56;20.50;1.00
6496;DHT22;3281;47.658;9.166;2023-07-13T11:27:37;20.70;1.00
6496;DHT22;3281;47.658;9.166;2023-07-13T11:30:22;21.10;1.00
6496;DHT22;3281;47.658;9.166;2023-07-13T11:33:04;21.10;1.00
6496;DHT22;3281;47.658;9.166;2023-07-13T11:35:33;21.00;1.00
6496;DHT22;3281;47.658;9.166;2023-07-13T11:38:03;21.00;1.00
6496;DHT22;3281;47.658;9.166;2023-07-13T11:40:36;21.30;1.00
6496;DHT22;3281;47.658;9.166;2023-07-13T11:43:06;21.60;1.00
6496;DHT22;3281;47.658;9.166;2023-07-13T11:45:33;21.60;1.00
6496;DHT22;3281;47.658;9.166;2023-07-13T11:48:00;21.60;1.00
6496;DHT22;3281;47.658;9.166;2023-07-13T11:50:27;21.60;1.00
6496;DHT22;3281;47.658;9.166;2023-07-13T11:52:54;21.50;1.00
6496;DHT22;3281;47.658;9.166;2023-07-13T11:55:24;21.40;1.00
6496;DHT22;3281;47.658;9.166;2023-07-13T11:57:54;21.40;1.00
6496;DHT22;3281;47.658;9.166;2023-07-13T12:00:26;21.50;1.00
6496;DHT22;3281;47.658;9.166;2023-07-13T12:02:57;21.50;1.00
6496;DHT22;3281;47.658;9.166;2023-07-13T12:05:24;21.50;1.00
6496;DHT22;3281;47.658;9.166;2023-07-13T12:07:52;21.30;1.00
6496;DHT22;3281;47.658;9.166;2023-07-13T12:10:21;21.30;1.00
6496;DHT22;3281;47.658;9.166;2023-07-13T12:12:52;21.30;1.00
6496;DHT22;3281;47.658;9.166;2023-07-13T12:15:19;21.30;1.00
6496;DHT22;3281;47.658;9.166;2023-07-13T12:17:47;21.40;1.00
6496;DHT22;3281;47.658;9.166;2023-07-13T12:20:20;21.50;1.00
6496;DHT22;3281;47.658;9.166;2023-07-13T12:22:47;21.50;1.00
6496;DHT22;3281;47.658;9.166;2023-07-13T12:25:15;21.60;1.00
6496;DHT22;3281;47.658;9.166;2023-07-13T12:27:46;21.60;1.00
6496;DHT22;3281;47.658;9.166;2023-07-13T12:30:30;21.60;1.00
6496;DHT22;3281;47.658;9.166;2023-07-13T12:33:00;21.80;1.00
6496;DHT22;3281;47.658;9.166;2023-07-13T12:35:29;21.90;1.00
6496;DHT22;3281;47.658;9.166;2023-07-13T12:38:01;22.10;1.00
6496;DHT22;3281;47.658;9.166;2023-07-13T12:40:32;22.10;1.00
6496;DHT22;3281;47.658;9.166;2023-07-13T12:43:00;22.00;1.00
6496;DHT22;3281;47.658;9.166;2023-07-13T12:45:31;22.00;1.00
6496;DHT22;3281;47.658;9.166;2023-07-13T12:48:03;21.80;1.00
6496;DHT22;3281;47.658;9.166;2023-07-13T12:50:34;21.80;1.00
6496;DHT22;3281;47.658;9.166;2023-07-13T12:53:05;21.80;1.00
6496;DHT22;3281;47.658;9.166;2023-07-13T12:55:41;22.00;1.00
6496;DHT22;3281;47.658;9.166;2023-07-13T12:58:17;21.90;1.00
6496;DHT22;3281;47.658;9.166;2023-07-13T13:00:50;21.80;1.00
6496;DHT22;3281;47.658;9.166;2023-07-13T13:03:24;21.70;1.00
6496;DHT22;3281;47.658;9.166;2023-07-13T13:06:02;21.70;1.00
6496;DHT22;3281;47.658;9.166;2023-07-13T13:08:30;21.80;1.00
6496;DHT22;3281;47.658;9.166;2023-07-13T13:10:57;22.00;1.00
6496;DHT22;3281;47.658;9.166;2023-07-13T13:13:24;22.10;1.00
6496;DHT22;3281;47.658;9.166;2023-07-13T13:15:52;22.30;1.00
6496;DHT22;3281;47.658;9.166;2023-07-13T13:18:21;22.40;1.00
6496;DHT22;3281;47.658;9.166;2023-07-13T13:20:48;22.30;1.00
6496;DHT22;3281;47.658;9.166;2023-07-13T13:23:17;22.30;1.00
6496;DHT22;3281;47.658;9.166;2023-07-13T13:25:44;22.40;1.00
6496;DHT22;3281;47.658;9.166;2023-07-13T13:28:14;22.40;1.00
6496;DHT22;3281;47.658;9.166;2023-07-13T13:30:42;22.50;1.00
6496;DHT22;3281;47.658;9.166;2023-07-13T13:33:11;22.50;1.00
6496;DHT22;3281;47.658;9.166;2023-07-13T13:35:39;22.50;1.00
6496;DHT22;3281;47.658;9.166;2023-07-13T13:38:10;22.30;1.00
6496;DHT22;3281;47.658;9.166;2023-07-13T13:40:37;22.30;1.00
6496;DHT22;3281;47.658;9.166;2023-07-13T13:43:13;22.30;1.00
6496;DHT22;3281;47.658;9.166;2023-07-13T13:45:41;22.40;1.00
6496;DHT22;3281;47.658;9.166;2023-07-13T13:48:17;22.60;1.00
6496;DHT22;3281;47.658;9.166;2023-07-13T13:50:44;22.70;1.00
6496;DHT22;3281;47.658;9.166;2023-07-13T13:53:13;22.80;1.00
6496;DHT22;3281;47.658;9.166;2023-07-13T13:55:40;22.90;1.00
6496;DHT22;3281;47.658;9.166;2023-07-13T13:58:07;23.10;1.00
6496;DHT22;3281;47.658;9.166;2023-07-13T14:00:34;23.10;1.00
6496;DHT22;3281;47.658;9.166;2023-07-13T14:03:01;23.20;1.00
6496;DHT22;3281;47.658;9.166;2023-07-13T14:05:29;23.40;1.00
6496;DHT22;3281;47.658;9.166;2023-07-13T14:07:57;23.30;1.00
6496;DHT22;3281;47.658;9.166;2023-07-13T14:10:25;23.40;1.00
6496;DHT22;3281;47.658;9.166;2023-07-13T14:12:54;23.80;1.00
6496;DHT22;3281;47.658;9.166;2023-07-13T14:15:23;23.80;1.00
6496;DHT22;3281;47.658;9.166;2023-07-13T14:17:50;23.80;1.00
6496;DHT22;3281;47.658;9.166;2023-07-13T14:20:18;23.80;1.00
6496;DHT22;3281;47.658;9.166;2023-07-13T14:22:47;23.90;1.00
6496;DHT22;3281;47.658;9.166;2023-07-13T14:25:15;23.80;1.00
6496;DHT22;3281;47.658;9.166;2023-07-13T14:27:43;23.30;1.00
6496;DHT22;3281;47.658;9.166;2023-07-13T14:30:13;23.30;1.00
6496;DHT22;3281;47.658;9.166;2023-07-13T14:32:41;23.30;1.00
6496;DHT22;3281;47.658;9.166;2023-07-13T14:35:10;23.50;1.00
6496;DHT22;3281;47.658;9.166;2023-07-13T14:37:37;23.30;1.00
6496;DHT22;3281;47.658;9.166;2023-07-13T14:40:12;23.30;1.00
6496;DHT22;3281;47.658;9.166;2023-07-13T14:42:39;23.40;1.00
6496;DHT22;3281;47.658;9.166;2023-07-13T14:45:13;23.40;1.00
6496;DHT22;3281;47.658;9.166;2023-07-13T14:47:39;23.00;1.00
6496;DHT22;3281;47.658;9.166;2023-07-13T14:50:12;23.00;1.00
6496;DHT22;3281;47.658;9.166;2023-07-13T14:52:39;23.00;1.00
6496;DHT22;3281;47.658;9.166;2023-07-13T14:55:10;23.10;1.00
6496;DHT22;3281;47.658;9.166;2023-07-13T14:57:37;23.00;1.00
6496;DHT22;3281;47.658;9.166;2023-07-13T15:00:07;23.00;1.00
6496;DHT22;3281;47.658;9.166;2023-07-13T15:02:39;22.80;1.00
6496;DHT22;3281;47.658;9.166;2023-07-13T15:05:12;22.70;1.00
6496;DHT22;3281;47.658;9.166;2023-07-13T15:07:40;22.70;1.00
6496;DHT22;3281;47.658;9.166;2023-07-13T15:10:15;22.60;1.00
6496;DHT22;3281;47.658;9.166;2023-07-13T15:12:42;22.70;1.00
6496;DHT22;3281;47.658;9.166;2023-07-13T15:15:09;22.70;1.00
6496;DHT22;3281;47.658;9.166;2023-07-13T15:17:37;22.60;1.00
6496;DHT22;3281;47.658;9.166;2023-07-13T15:20:15;22.70;1.00
6496;DHT22;3281;47.658;9.166;2023-07-13T15:22:43;22.70;1.00
6496;DHT22;3281;47.658;9.166;2023-07-13T15:25:18;22.60;1.00
6496;DHT22;3281;47.658;9.166;2023-07-13T15:27:45;22.60;1.00
6496;DHT22;3281;47.658;9.166;2023-07-13T15:30:13;22.60;1.00
6496;DHT22;3281;47.658;9.166;2023-07-13T15:32:41;22.70;1.00
6496;DHT22;3281;47.658;9.166;2023-07-13T15:35:14;22.70;1.00
6496;DHT22;3281;47.658;9.166;2023-07-13T15:37:41;22.70;1.00
6496;DHT22;3281;47.658;9.166;2023-07-13T15:40:09;22.60;1.00
6496;DHT22;3281;47.658;9.166;2023-07-13T15:42:39;22.60;1.00
6496;DHT22;3281;47.658;9.166;2023-07-13T15:45:14;22.50;1.00
6496;DHT22;3281;47.658;9.166;2023-07-13T15:47:41;22.50;1.00
6496;DHT22;3281;47.658;9.166;2023-07-13T15:50:12;22.40;1.00
6496;DHT22;3281;47.658;9.166;2023-07-13T15:52:39;22.40;1.00
6496;DHT22;3281;47.658;9.166;2023-07-13T15:55:10;22.50;1.00
6496;DHT22;3281;47.658;9.166;2023-07-13T15:57:38;22.50;1.00
6496;DHT22;3281;47.658;9.166;2023-07-13T16:00:16;22.50;1.00
6496;DHT22;3281;47.658;9.166;2023-07-13T16:02:44;22.60;1.00
6496;DHT22;3281;47.658;9.166;2023-07-13T16:05:10;22.60;1.00
6496;DHT22;3281;47.658;9.166;2023-07-13T16:07:37;22.70;1.00
6496;DHT22;3281;47.658;9.166;2023-07-13T16:10:04;22.70;1.00
6496;DHT22;3281;47.658;9.166;2023-07-13T16:12:32;22.70;1.00
6496;DHT22;3281;47.658;9.166;2023-07-13T16:15:01;22.80;1.00
6496;DHT22;3281;47.658;9.166;2023-07-13T16:17:28;23.00;1.00
6496;DHT22;3281;47.658;9.166;2023-07-13T16:19:55;23.10;1.00
6496;DHT22;3281;47.658;9.166;2023-07-13T16:22:24;23.10;1.00